createdAt,value
2022-10-20T00:01:56.755Z,8.75
2022-10-20T00:04:23.835Z,4.20
2022-10-20T00:06:50.963Z,3.50
2022-10-20T00:09:24.603Z,6.57
2022-10-20T00:11:51.694Z,8.15
2022-10-20T00:14:25.677Z,7.05
2022-10-20T00:17:06.616Z,4.50
2022-10-20T00:19:40.690Z,5.57
2022-10-20T00:22:07.846Z,6.70
2022-10-20T00:24:34.951Z,5.22
2022-10-20T00:27:08.745Z,7.15
2022-10-20T00:29:36.000Z,8.60
2022-10-20T00:32:09.837Z,5.93
2022-10-20T00:34:37.026Z,3.85
2022-10-20T00:37:04.182Z,6.65
2022-10-20T00:39:37.654Z,6.60
2022-10-20T00:42:05.683Z,5.78
2022-10-20T00:44:55.738Z,5.60
2022-10-20T00:47:25.650Z,7.82
2022-10-20T00:49:59.687Z,6.20
2022-10-20T00:52:37.952Z,8.82
2022-10-20T00:55:12.734Z,5.63
2022-10-20T00:57:39.986Z,3.90
2022-10-20T01:00:08.881Z,6.78
2022-10-20T01:02:42.734Z,7.22
2022-10-20T01:05:09.939Z,9.63
2022-10-20T01:07:43.783Z,7.43
2022-10-20T01:10:12.605Z,7.15
2022-10-20T01:12:42.450Z,5.40
2022-10-20T01:15:25.662Z,5.57
2022-10-20T01:18:07.623Z,6.35
2022-10-20T01:20:53.890Z,7.18
2022-10-20T01:23:23.974Z,9.20
2022-10-20T01:25:51.294Z,6.72
2022-10-20T01:28:24.654Z,11.00
2022-10-20T01:31:02.584Z,7.85
2022-10-20T01:33:49.378Z,9.02
2022-10-20T01:36:25.585Z,10.73
2022-10-20T01:38:56.212Z,8.52
2022-10-20T01:41:43.618Z,8.85
2022-10-20T01:44:12.457Z,9.68
2022-10-20T01:46:47.728Z,7.07
2022-10-20T01:49:15.465Z,8.55
2022-10-20T01:54:30.692Z,9.25
2022-10-20T01:57:10.170Z,7.00
2022-10-20T01:59:58.689Z,8.27
2022-10-20T02:02:40.976Z,7.80
2022-10-20T02:05:20.709Z,11.45
2022-10-20T02:07:47.925Z,7.88
2022-10-20T02:10:36.663Z,5.85
2022-10-20T02:13:06.957Z,9.77
2022-10-20T02:15:43.807Z,7.95
2022-10-20T02:18:22.278Z,13.05
2022-10-20T02:20:57.680Z,11.88
2022-10-20T02:23:24.837Z,9.32
2022-10-20T02:26:00.817Z,12.07
2022-10-20T02:28:38.094Z,8.27
2022-10-20T02:31:11.887Z,5.57
2022-10-20T02:33:39.785Z,9.57
2022-10-20T02:36:07.309Z,8.13
2022-10-20T02:38:40.720Z,10.23
2022-10-20T02:41:08.032Z,8.60
2022-10-20T02:43:41.823Z,12.70
2022-10-20T02:46:09.102Z,10.45
2022-10-20T02:48:38.263Z,13.40
2022-10-20T02:51:12.805Z,5.82
2022-10-20T02:53:40.022Z,10.02
2022-10-20T02:56:07.271Z,8.18
2022-10-20T02:58:40.664Z,7.28
2022-10-20T03:01:08.002Z,11.13
2022-10-20T03:03:41.794Z,8.52
2022-10-20T03:06:10.237Z,9.55
2022-10-20T03:08:37.360Z,6.68
2022-10-20T03:11:11.817Z,7.55
2022-10-20T03:13:39.088Z,6.85
2022-10-20T03:16:06.324Z,5.85
2022-10-20T03:18:40.689Z,6.70
2022-10-20T03:21:07.895Z,7.63
2022-10-20T03:23:41.726Z,8.27
2022-10-20T03:26:10.818Z,5.43
2022-10-20T03:28:38.147Z,7.97
2022-10-20T03:31:11.817Z,3.85
2022-10-20T03:33:38.978Z,6.10
2022-10-20T03:36:06.273Z,8.05
2022-10-20T03:38:39.699Z,4.07
2022-10-20T03:41:07.010Z,6.07
2022-10-20T03:43:40.706Z,7.38
2022-10-20T03:46:10.414Z,4.35
2022-10-20T03:48:37.980Z,5.72
2022-10-20T03:53:38.896Z,8.30
2022-10-20T03:56:07.066Z,5.75
2022-10-20T03:58:40.699Z,7.60
2022-10-20T04:01:09.412Z,5.60
2022-10-20T04:03:42.822Z,5.38
2022-10-20T04:06:09.981Z,8.80
2022-10-20T04:08:37.123Z,7.47
2022-10-20T04:11:10.929Z,7.43
2022-10-20T04:13:38.128Z,7.65
2022-10-20T04:16:05.344Z,9.40
2022-10-20T04:18:39.733Z,9.05
2022-10-20T04:21:13.690Z,12.40
2022-10-20T04:23:47.823Z,8.05
2022-10-20T04:26:16.358Z,7.30
2022-10-20T04:28:43.527Z,8.65
2022-10-20T04:31:17.773Z,11.00
2022-10-20T04:33:45.020Z,14.10
2022-10-20T04:36:20.830Z,9.15
2022-10-20T04:38:48.088Z,7.38
2022-10-20T04:41:15.219Z,5.60
2022-10-20T04:43:48.733Z,10.90
2022-10-20T04:46:15.937Z,8.55
2022-10-20T04:48:44.425Z,9.05
2022-10-20T04:51:19.636Z,11.65
2022-10-20T04:53:46.920Z,7.60
2022-10-20T04:56:24.668Z,8.05
2022-10-20T04:58:52.602Z,12.43
2022-10-20T05:01:20.028Z,10.55
2022-10-20T05:03:54.710Z,9.73
2022-10-20T05:06:23.288Z,6.72
2022-10-20T05:08:58.884Z,11.73
2022-10-20T05:11:34.773Z,7.22
2022-10-20T05:14:08.880Z,9.48
2022-10-20T05:16:36.014Z,8.02
2022-10-20T05:19:16.850Z,15.50
2022-10-20T05:21:44.006Z,5.18
2022-10-20T05:24:18.257Z,11.45
2022-10-20T05:26:54.737Z,10.55
2022-10-20T05:29:21.973Z,10.57
2022-10-20T05:31:49.106Z,13.70
2022-10-20T05:34:22.838Z,10.60
2022-10-20T05:36:50.041Z,12.20
2022-10-20T05:39:17.110Z,7.53
2022-10-20T05:41:50.734Z,15.10
2022-10-20T05:44:17.907Z,7.50
2022-10-20T05:46:51.834Z,9.77
2022-10-20T05:49:19.050Z,28.23
2022-10-20T05:51:47.120Z,9.80
2022-10-20T05:54:21.833Z,9.60
2022-10-20T05:56:49.002Z,11.63
2022-10-20T05:59:16.207Z,9.07
2022-10-20T06:01:55.764Z,27.10
2022-10-20T06:04:24.026Z,11.13
2022-10-20T06:07:01.700Z,11.50
2022-10-20T06:09:28.878Z,10.23
2022-10-20T06:12:02.897Z,16.50
2022-10-20T06:14:30.129Z,6.72
2022-10-20T06:16:57.693Z,9.80
2022-10-20T06:22:06.869Z,10.52
2022-10-20T06:24:40.830Z,8.73
2022-10-20T06:27:08.414Z,16.58
2022-10-20T06:32:08.774Z,12.02
2022-10-20T06:34:35.952Z,7.80
2022-10-20T06:37:09.774Z,108.43
2022-10-20T06:39:36.862Z,229.02
2022-10-20T06:42:09.538Z,288.98
2022-10-20T06:44:45.778Z,19.67
2022-10-20T06:47:12.986Z,15.63
2022-10-20T06:49:40.147Z,9.07
2022-10-20T06:52:13.752Z,156.57
2022-10-20T06:54:40.839Z,88.47
2022-10-20T06:57:08.103Z,7.78
2022-10-20T06:59:41.842Z,7.20
2022-10-20T07:02:11.133Z,12.18
2022-10-20T07:04:44.746Z,6.70
2022-10-20T07:07:11.843Z,8.10
2022-10-20T07:09:45.762Z,6.13
2022-10-20T07:12:13.010Z,7.43
2022-10-20T07:14:46.854Z,7.50
2022-10-20T07:17:14.056Z,8.57
2022-10-20T07:19:53.804Z,6.45
2022-10-20T07:22:20.900Z,6.25
2022-10-20T07:24:48.080Z,9.00
2022-10-20T07:27:38.067Z,10.43
2022-10-20T07:30:05.368Z,5.80
2022-10-20T07:32:43.970Z,6.22
2022-10-20T07:35:11.058Z,7.97
2022-10-20T07:37:38.707Z,4.60
2022-10-20T07:40:13.072Z,6.47
2022-10-20T07:42:40.290Z,9.32
2022-10-20T07:45:07.817Z,6.65
2022-10-20T07:50:13.031Z,7.07
2022-10-20T07:55:33.445Z,11.68
2022-10-20T07:58:07.867Z,14.00
2022-10-20T08:00:35.222Z,7.60
2022-10-20T08:03:02.411Z,7.47
2022-10-20T08:05:35.774Z,7.35
2022-10-20T08:08:02.936Z,9.68
2022-10-20T08:10:30.161Z,12.05
2022-10-20T08:13:04.827Z,7.68
2022-10-20T08:15:40.326Z,10.75
2022-10-20T08:18:20.976Z,8.63
2022-10-20T08:20:48.295Z,10.57
2022-10-20T08:23:17.699Z,6.97
2022-10-20T08:25:51.790Z,10.95
2022-10-20T08:28:21.150Z,10.73
2022-10-20T08:30:57.996Z,11.10
2022-10-20T08:33:25.138Z,9.85
2022-10-20T08:35:52.406Z,9.88
2022-10-20T08:38:25.792Z,6.70
2022-10-20T08:40:53.009Z,9.40
2022-10-20T08:43:27.831Z,8.88
2022-10-20T08:45:54.924Z,5.85
2022-10-20T08:51:21.768Z,8.45
2022-10-20T08:53:56.674Z,7.43
2022-10-20T08:56:34.782Z,8.48
2022-10-20T08:59:09.710Z,7.05
2022-10-20T09:01:37.189Z,6.88
2022-10-20T09:06:38.782Z,5.45
2022-10-20T09:09:05.957Z,4.72
2022-10-20T09:11:43.875Z,4.95
2022-10-20T09:14:14.666Z,8.82
2022-10-20T09:16:59.787Z,4.72
2022-10-20T09:19:47.716Z,6.82
2022-10-20T09:22:21.882Z,3.33
2022-10-20T09:24:49.896Z,2.45
2022-10-20T09:27:45.911Z,4.20
2022-10-20T09:30:18.141Z,3.55
2022-10-20T09:32:52.958Z,6.07
2022-10-20T09:35:21.591Z,6.10
2022-10-20T09:37:59.781Z,5.18
2022-10-20T09:40:38.302Z,3.20
2022-10-20T09:43:22.795Z,3.50
2022-10-20T09:45:54.273Z,4.13
2022-10-20T09:48:45.886Z,3.65
2022-10-20T09:51:17.682Z,3.38
2022-10-20T09:53:57.779Z,4.68
2022-10-20T09:56:29.676Z,2.05
2022-10-20T09:59:04.874Z,1.80
2022-10-20T10:01:32.136Z,3.97
2022-10-20T10:04:01.936Z,2.65
2022-10-20T10:06:44.807Z,1.85
2022-10-20T10:12:06.996Z,3.50
2022-10-20T10:15:16.748Z,4.18
2022-10-20T10:17:50.848Z,2.38
2022-10-20T10:20:43.703Z,3.28
2022-10-20T10:23:17.650Z,2.05
2022-10-20T10:25:51.697Z,2.47
2022-10-20T10:28:29.254Z,3.33
2022-10-20T10:31:18.890Z,1.05
2022-10-20T10:33:46.547Z,2.13
2022-10-20T10:36:46.757Z,2.30
2022-10-20T10:39:15.236Z,1.70
2022-10-20T10:42:07.724Z,1.65
2022-10-20T10:44:47.698Z,4.05
2022-10-20T10:47:35.356Z,5.10
2022-10-20T10:50:08.248Z,2.00
2022-10-20T10:52:53.869Z,1.85
2022-10-20T10:55:47.186Z,4.10
2022-10-20T10:58:22.839Z,3.42
2022-10-20T11:01:08.703Z,3.17
2022-10-20T11:03:51.753Z,1.40
2022-10-20T11:06:42.611Z,0.98
2022-10-20T11:12:32.875Z,2.15
2022-10-20T11:15:07.884Z,1.83
2022-10-20T11:17:40.973Z,0.90
2022-10-20T11:20:21.744Z,7.68
2022-10-20T11:22:52.035Z,1.27
2022-10-20T11:25:28.737Z,0.90
2022-10-20T11:28:04.835Z,0.65
2022-10-20T11:30:40.731Z,2.17
2022-10-20T11:33:21.870Z,1.20
2022-10-20T11:35:52.257Z,4.13
2022-10-20T11:38:29.823Z,2.67
2022-10-20T11:41:00.087Z,3.85
2022-10-20T11:43:42.894Z,3.72
2022-10-20T11:46:12.749Z,1.27
2022-10-20T11:48:46.884Z,1.50
2022-10-20T11:51:35.739Z,1.17
2022-10-20T11:56:51.766Z,3.25
2022-10-20T11:59:44.817Z,2.92
2022-10-20T12:02:27.871Z,1.05
2022-10-20T12:05:13.885Z,1.20
2022-10-20T12:08:17.416Z,2.15
2022-10-20T12:11:10.847Z,2.03
2022-10-20T12:13:56.578Z,2.40
2022-10-20T12:16:48.881Z,2.17
2022-10-20T12:19:37.750Z,2.17
2022-10-20T12:24:44.773Z,1.50
2022-10-20T12:27:12.019Z,4.57
2022-10-20T12:29:39.239Z,2.03
2022-10-20T12:38:23.931Z,2.22
2022-10-20T12:41:01.769Z,5.47
2022-10-20T12:43:37.083Z,1.05
2022-10-20T12:46:13.786Z,3.97
2022-10-20T12:48:43.877Z,3.60
2022-10-20T12:51:29.753Z,2.90
2022-10-20T12:53:59.888Z,2.38
2022-10-20T12:56:34.749Z,1.90
2022-10-20T12:59:08.255Z,1.38
2022-10-20T13:02:00.879Z,1.67
2022-10-20T13:04:46.842Z,1.58
2022-10-20T13:07:20.890Z,2.50
2022-10-20T13:10:00.330Z,2.88
2022-10-20T13:12:46.802Z,2.55
2022-10-20T13:15:22.956Z,0.75
2022-10-20T13:18:02.795Z,1.38
2022-10-20T13:20:42.897Z,3.15
2022-10-20T13:23:23.749Z,1.38
2022-10-20T13:26:01.890Z,1.90
2022-10-20T13:28:30.023Z,7.20
2022-10-20T13:31:04.085Z,2.67
2022-10-20T13:34:04.654Z,0.77
2022-10-20T13:39:18.083Z,1.67
2022-10-20T13:41:55.882Z,3.38
2022-10-20T13:44:32.089Z,6.18
2022-10-20T13:47:15.023Z,1.20
2022-10-20T13:50:06.206Z,1.92
2022-10-20T13:52:45.867Z,4.30
2022-10-20T13:55:21.801Z,4.03
2022-10-20T13:57:57.987Z,6.75
2022-10-20T14:00:36.499Z,2.42
2022-10-20T14:03:11.924Z,1.30
2022-10-20T14:05:39.649Z,1.92
2022-10-20T14:08:11.029Z,3.13
2022-10-20T14:10:50.977Z,1.38
2022-10-20T14:13:26.840Z,1.95
2022-10-20T14:16:00.684Z,0.90
2022-10-20T14:18:38.777Z,2.45
2022-10-20T14:21:14.052Z,3.97
2022-10-20T14:23:48.785Z,1.50
2022-10-20T14:26:20.484Z,0.85
2022-10-20T14:28:55.812Z,0.65
2022-10-20T14:31:24.109Z,2.40
2022-10-20T14:33:52.176Z,1.75
2022-10-20T14:36:30.128Z,3.15
2022-10-20T14:39:01.163Z,3.38
2022-10-20T14:41:35.848Z,23.13
2022-10-20T14:44:12.212Z,1.40
2022-10-20T14:46:53.225Z,1.55
2022-10-20T14:49:38.585Z,5.40
2022-10-20T14:52:16.512Z,2.90
2022-10-20T14:54:47.071Z,1.83
2022-10-20T14:57:21.291Z,1.50
2022-10-20T14:59:51.301Z,6.18
2022-10-20T15:02:27.972Z,0.95
2022-10-20T15:04:55.195Z,1.83
2022-10-20T15:07:28.947Z,1.02
2022-10-20T15:10:01.587Z,0.90
2022-10-20T15:12:40.237Z,0.88
2022-10-20T15:15:27.880Z,1.40
2022-10-20T15:18:14.150Z,1.30
2022-10-20T15:20:48.950Z,8.38
2022-10-20T15:23:23.896Z,3.40
2022-10-20T15:26:05.125Z,5.07
2022-10-20T15:28:41.946Z,3.60
2022-10-20T15:31:21.391Z,0.98
2022-10-20T15:33:55.922Z,0.75
2022-10-20T15:36:28.325Z,2.80
2022-10-20T15:39:02.916Z,2.45
2022-10-20T15:41:31.376Z,1.42
2022-10-20T15:44:11.819Z,2.45
2022-10-20T15:46:38.983Z,1.00
2022-10-20T15:49:06.293Z,3.50
2022-10-20T15:51:41.169Z,4.65
2022-10-20T15:54:08.354Z,5.72
2022-10-20T15:56:35.790Z,5.75
2022-10-20T15:59:09.953Z,3.22
2022-10-20T16:01:37.240Z,1.60
2022-10-20T16:04:36.126Z,2.63
2022-10-20T16:07:03.431Z,6.13
2022-10-20T16:09:40.946Z,4.95
2022-10-20T16:12:08.151Z,1.90
2022-10-20T16:14:37.999Z,2.00
2022-10-20T16:17:11.923Z,1.88
2022-10-20T16:19:45.884Z,2.60
2022-10-20T16:22:19.909Z,1.65
2022-10-20T16:24:47.613Z,0.70
2022-10-20T16:27:21.960Z,4.80
2022-10-20T16:29:50.754Z,2.42
2022-10-20T16:32:17.899Z,2.83
2022-10-20T16:34:51.921Z,3.38
2022-10-20T16:37:19.071Z,3.15
2022-10-20T16:39:52.952Z,1.13
2022-10-20T16:42:20.155Z,1.23
2022-10-20T16:44:47.388Z,2.33
2022-10-20T16:47:20.991Z,8.05
2022-10-20T16:49:48.166Z,1.65
2022-10-20T16:52:15.290Z,3.00
2022-10-20T16:54:48.912Z,2.47
2022-10-20T16:57:16.337Z,3.08
2022-10-20T16:59:51.969Z,1.63
2022-10-20T17:02:19.596Z,0.80
2022-10-20T17:04:56.900Z,2.38
2022-10-20T17:07:25.483Z,1.47
2022-10-20T17:09:59.201Z,2.80
2022-10-20T17:12:26.450Z,5.57
2022-10-20T17:14:53.566Z,1.45
2022-10-20T17:17:27.027Z,1.00
2022-10-20T17:20:13.840Z,3.45
2022-10-20T17:22:48.050Z,3.22
2022-10-20T17:25:15.233Z,1.23
2022-10-20T17:27:42.354Z,1.80
2022-10-20T17:30:17.982Z,2.63
2022-10-20T17:32:45.498Z,3.25
2022-10-20T17:35:20.971Z,2.17
2022-10-20T17:37:48.154Z,8.75
2022-10-20T17:40:15.550Z,2.60
2022-10-20T17:42:48.963Z,1.52
2022-10-20T17:45:16.180Z,4.85
2022-10-20T17:47:49.970Z,3.25
2022-10-20T17:50:17.140Z,3.72
2022-10-20T17:52:44.323Z,2.85
2022-10-20T17:55:18.082Z,3.35
2022-10-20T17:57:45.436Z,3.22
2022-10-20T18:00:19.123Z,6.90
2022-10-20T18:02:57.939Z,1.83
2022-10-20T18:05:31.925Z,3.95
2022-10-20T18:08:12.984Z,8.43
2022-10-20T18:10:43.951Z,10.38
2022-10-20T18:13:11.667Z,7.10
2022-10-20T18:15:49.928Z,5.03
2022-10-20T18:21:01.051Z,1.75
2022-10-20T18:23:35.871Z,1.98
2022-10-20T18:26:29.465Z,7.25
2022-10-20T18:29:02.871Z,1.52
2022-10-20T18:31:31.476Z,5.03
2022-10-20T18:34:04.247Z,2.63
2022-10-20T18:36:43.411Z,6.05
2022-10-20T18:39:19.877Z,4.97
2022-10-20T18:41:47.280Z,5.53
2022-10-20T18:44:21.920Z,2.65
2022-10-20T18:46:49.332Z,3.58
2022-10-20T18:49:24.899Z,6.03
2022-10-20T18:51:52.347Z,7.25
2022-10-20T18:54:19.660Z,4.65
2022-10-20T18:56:52.867Z,5.60
2022-10-20T18:59:20.369Z,3.85
2022-10-20T19:01:54.920Z,3.75
2022-10-20T19:04:22.289Z,2.13
2022-10-20T19:06:49.615Z,3.63
2022-10-20T19:09:25.243Z,2.60
2022-10-20T19:12:00.940Z,8.13
2022-10-20T19:14:34.973Z,3.92
2022-10-20T19:17:02.354Z,3.60
2022-10-20T19:19:43.006Z,3.75
2022-10-20T19:22:10.187Z,10.82
2022-10-20T19:24:40.451Z,3.42
2022-10-20T19:27:26.036Z,1.60
2022-10-20T19:29:55.811Z,2.13
2022-10-20T19:32:30.037Z,3.40
2022-10-20T19:34:57.206Z,4.05
2022-10-20T19:37:31.027Z,8.65
2022-10-20T19:39:58.325Z,3.85
2022-10-20T19:42:34.655Z,7.63
2022-10-20T19:45:02.028Z,2.97
2022-10-20T19:47:42.148Z,4.45
2022-10-20T19:50:09.380Z,3.88
2022-10-20T19:52:36.802Z,7.00
2022-10-20T19:57:38.190Z,2.22
2022-10-20T20:00:05.515Z,3.75
2022-10-20T20:02:39.601Z,4.25
2022-10-20T20:05:07.128Z,5.28
2022-10-20T20:07:41.385Z,4.65
2022-10-20T20:10:10.165Z,5.18
2022-10-20T20:12:37.284Z,7.47
2022-10-20T20:15:11.033Z,2.80
2022-10-20T20:17:38.472Z,8.18
2022-10-20T20:20:26.179Z,4.50
2022-10-20T20:22:53.335Z,5.25
2022-10-20T20:25:20.472Z,4.10
2022-10-20T20:27:54.019Z,10.65
2022-10-20T20:30:21.228Z,6.40
2022-10-20T20:32:55.024Z,3.25
2022-10-20T20:35:22.208Z,4.78
2022-10-20T20:37:49.351Z,2.88
2022-10-20T20:43:21.010Z,6.82
2022-10-20T20:45:54.903Z,3.28
2022-10-20T20:48:22.355Z,2.33
2022-10-20T20:51:04.021Z,1.33
2022-10-20T20:53:31.322Z,7.00
2022-10-20T20:55:59.898Z,1.85
2022-10-20T20:58:35.190Z,4.60
2022-10-20T21:01:04.366Z,4.80
2022-10-20T21:03:31.663Z,6.28
2022-10-20T21:06:06.136Z,10.93
2022-10-20T21:08:34.091Z,2.05
2022-10-20T21:11:05.567Z,3.55
2022-10-20T21:13:41.063Z,2.00
2022-10-20T21:16:08.340Z,1.80
2022-10-20T21:18:35.504Z,3.83
2022-10-20T21:21:16.255Z,5.95
2022-10-20T21:23:43.604Z,9.07
2022-10-20T21:26:11.498Z,2.95
2022-10-20T21:28:44.999Z,1.27
2022-10-20T21:31:13.559Z,2.95
2022-10-20T21:33:41.135Z,1.25
2022-10-20T21:38:43.119Z,4.45
2022-10-20T21:41:10.182Z,4.45
2022-10-20T21:43:45.104Z,6.80
2022-10-20T21:46:16.972Z,4.53
2022-10-20T21:48:44.767Z,5.72
2022-10-20T21:51:22.958Z,4.88
2022-10-20T21:56:32.773Z,7.13
2022-10-20T21:59:05.920Z,4.50
2022-10-20T22:01:34.679Z,7.38
2022-10-20T22:04:07.890Z,13.77
2022-10-20T22:06:37.166Z,2.90
2022-10-20T22:09:10.990Z,3.47
2022-10-20T22:11:39.630Z,4.03
2022-10-20T22:14:07.058Z,7.05
2022-10-20T22:16:41.980Z,4.90
2022-10-20T22:19:12.030Z,2.58
2022-10-20T22:21:53.113Z,2.53
2022-10-20T22:24:20.772Z,6.22
2022-10-20T22:29:22.079Z,2.90
2022-10-20T22:31:49.713Z,5.30
2022-10-20T22:36:50.454Z,4.45
2022-10-20T22:39:17.548Z,2.47
2022-10-20T22:41:51.009Z,5.10
2022-10-20T22:44:18.255Z,5.97
2022-10-20T22:46:52.220Z,4.80
2022-10-20T22:49:19.406Z,5.40
2022-10-20T22:51:46.544Z,10.65
2022-10-20T22:54:20.008Z,7.13
2022-10-20T22:56:47.254Z,6.53
2022-10-20T22:59:14.350Z,3.92
2022-10-20T23:01:48.016Z,4.38
2022-10-20T23:04:15.228Z,6.72
2022-10-20T23:06:49.058Z,5.40
2022-10-20T23:09:16.387Z,3.40
2022-10-20T23:11:50.040Z,5.55
2022-10-20T23:14:17.314Z,4.18
2022-10-20T23:16:58.053Z,3.97
2022-10-20T23:19:32.025Z,4.88
2022-10-20T23:22:06.141Z,4.63
2022-10-20T23:24:33.363Z,7.93
2022-10-20T23:27:00.501Z,7.00
2022-10-20T23:29:43.087Z,6.93
2022-10-20T23:32:10.271Z,3.78
2022-10-20T23:34:44.051Z,6.82
2022-10-20T23:37:11.327Z,4.35
2022-10-20T23:39:38.479Z,5.20
2022-10-20T23:42:11.901Z,4.05
2022-10-20T23:44:39.184Z,6.85
2022-10-20T23:47:12.907Z,8.32
2022-10-20T23:49:39.990Z,8.07
2022-10-20T23:52:14.139Z,4.40
2022-10-20T23:54:41.247Z,8.45
2022-10-20T23:57:08.462Z,7.05
2022-10-20T23:59:42.095Z,5.00
